Time;durP1;ratioP1;P1;durP2;ratioP2;P2;SDS_P1;SDS_P2;PMS_P1;PMS_P2;Temp;Humidity;BMP_temperature;BMP_pressure;BME280_temperature;BME280_humidity;BME280_pressure;Samples;Min_cycle;Max_cycle;Signal;HPM_P1;HPM_P2
2023/06/24 00:01:33;;;;;;;;;;;26.50;57.50;;;;;;4886780;29;19916;-88
2023/06/24 00:04:02;;;;;;;;;;;26.50;57.50;;;;;;4880145;29;20192;-89
2023/06/24 00:06:27;;;;;;;;;;;26.50;57.50;;;;;;4889308;29;19912;-89
2023/06/24 00:09:00;;;;;;;;;;;26.40;57.50;;;;;;4884935;29;19912;-89
2023/06/24 00:11:30;;;;;;;;;;;26.40;57.50;;;;;;4881238;29;19915;-89
2023/06/24 00:13:56;;;;;;;;;;;26.40;57.50;;;;;;4886436;29;19926;-89
2023/06/24 00:16:26;;;;;;;;;;;26.40;57.50;;;;;;4877078;29;19943;-89
2023/06/24 00:19:01;;;;;;;;;;;26.40;57.50;;;;;;4889805;29;19995;-89
2023/06/24 00:21:31;;;;;;;;;;;26.40;57.50;;;;;;4878999;29;20110;-89
2023/06/24 00:24:04;;;;;;;;;;;26.40;57.50;;;;;;4886672;29;20105;-89
2023/06/24 00:26:30;;;;;;;;;;;26.40;57.60;;;;;;4878228;29;20110;-89
2023/06/24 00:28:55;;;;;;;;;;;26.40;57.60;;;;;;4878740;29;19912;-89
2023/06/24 00:31:24;;;;;;;;;;;26.30;57.50;;;;;;4878902;29;19970;-89
2023/06/24 00:33:52;;;;;;;;;;;26.30;57.50;;;;;;4875132;29;20280;-89
2023/06/24 00:36:17;;;;;;;;;;;26.30;57.50;;;;;;4882358;29;19961;-89
2023/06/24 00:38:49;;;;;;;;;;;26.30;57.50;;;;;;4877722;29;19947;-89
2023/06/24 00:41:16;;;;;;;;;;;26.30;57.60;;;;;;4885618;29;19979;-89
2023/06/24 00:43:45;;;;;;;;;;;26.30;57.50;;;;;;4890637;29;19911;-89
2023/06/24 00:46:10;;;;;;;;;;;26.20;57.50;;;;;;4880487;29;19927;-89
2023/06/24 00:48:36;;;;;;;;;;;26.20;57.50;;;;;;4877845;29;20373;-89
2023/06/24 00:51:01;;;;;;;;;;;26.20;57.50;;;;;;4878275;29;20351;-89
2023/06/24 00:53:30;;;;;;;;;;;26.20;57.50;;;;;;4885349;29;20233;-88
2023/06/24 00:56:01;;;;;;;;;;;26.20;57.50;;;;;;4869772;29;20169;-88
2023/06/24 00:58:27;;;;;;;;;;;26.20;57.60;;;;;;4874466;29;19911;-88
2023/06/24 01:00:57;;;;;;;;;;;26.20;57.60;;;;;;4874875;29;20103;-88
2023/06/24 01:03:26;;;;;;;;;;;26.20;57.50;;;;;;4889694;29;19911;-88
2023/06/24 01:05:52;;;;;;;;;;;26.10;57.50;;;;;;4887910;29;19962;-89
2023/06/24 01:08:19;;;;;;;;;;;26.10;57.50;;;;;;4881309;29;19911;-89
2023/06/24 01:10:48;;;;;;;;;;;26.10;57.50;;;;;;4891167;29;19911;-89
2023/06/24 01:13:14;;;;;;;;;;;26.10;57.50;;;;;;4881158;29;19995;-89
2023/06/24 01:15:46;;;;;;;;;;;26.10;57.50;;;;;;4889303;29;20380;-89
2023/06/24 01:18:13;;;;;;;;;;;26.10;57.50;;;;;;4883697;29;19911;-89
2023/06/24 01:20:57;;;;;;;;;;;26.10;57.50;;;;;;4874363;29;20207;-89
2023/06/24 01:23:30;;;;;;;;;;;26.10;57.50;;;;;;4874470;29;19912;-89
2023/06/24 01:25:55;;;;;;;;;;;26.00;57.50;;;;;;4888550;29;20345;-89
2023/06/24 01:28:39;;;;;;;;;;;26.10;57.50;;;;;;4891553;29;19911;-89
2023/06/24 01:31:18;;;;;;;;;;;26.10;57.60;;;;;;4872713;29;19970;-89
2023/06/24 01:33:50;;;;;;;;;;;26.00;57.50;;;;;;4886446;29;19927;-89
2023/06/24 01:36:17;;;;;;;;;;;26.00;57.50;;;;;;4879192;29;20291;-89
2023/06/24 01:38:46;;;;;;;;;;;26.00;57.60;;;;;;4882225;29;20276;-89
2023/06/24 01:41:13;;;;;;;;;;;26.00;57.60;;;;;;4879844;29;19922;-89
2023/06/24 01:43:41;;;;;;;;;;;26.00;57.60;;;;;;4879676;29;20265;-89
2023/06/24 01:46:09;;;;;;;;;;;26.00;57.60;;;;;;4872444;29;19984;-89
2023/06/24 01:48:36;;;;;;;;;;;25.90;57.50;;;;;;4890081;29;19927;-89
2023/06/24 01:51:03;;;;;;;;;;;25.90;58.00;;;;;;4889227;29;19915;-89
2023/06/24 01:53:32;;;;;;;;;;;25.90;57.60;;;;;;4880654;29;20348;-89
2023/06/24 01:55:59;;;;;;;;;;;25.90;57.60;;;;;;4888115;29;20203;-88
2023/06/24 01:58:24;;;;;;;;;;;25.90;57.60;;;;;;4879329;29;20255;-88
2023/06/24 02:00:50;;;;;;;;;;;25.90;57.60;;;;;;4879703;29;20273;-89
2023/06/24 02:03:17;;;;;;;;;;;25.90;57.60;;;;;;4882117;29;19938;-89
2023/06/24 02:05:44;;;;;;;;;;;25.80;57.50;;;;;;4886510;29;19938;-89
2023/06/24 02:08:10;;;;;;;;;;;25.80;57.60;;;;;;4882214;29;20010;-89
2023/06/24 02:10:37;;;;;;;;;;;25.90;57.60;;;;;;4878631;29;19984;-89
2023/06/24 02:13:07;;;;;;;;;;;25.80;57.60;;;;;;4879960;29;20014;-89
2023/06/24 02:15:38;;;;;;;;;;;25.80;57.60;;;;;;4883473;29;19911;-89
2023/06/24 02:18:04;;;;;;;;;;;25.80;57.60;;;;;;4888066;29;19923;-89
2023/06/24 02:20:31;;;;;;;;;;;25.80;57.60;;;;;;4889267;29;20196;-89
2023/06/24 02:22:57;;;;;;;;;;;25.80;57.60;;;;;;4878872;29;19959;-89
2023/06/24 02:25:24;;;;;;;;;;;25.80;57.60;;;;;;4880367;29;20196;-89
2023/06/24 02:27:54;;;;;;;;;;;25.80;57.60;;;;;;4883049;29;20010;-89
2023/06/24 02:30:21;;;;;;;;;;;25.70;57.50;;;;;;4889868;29;19911;-89
2023/06/24 02:32:50;;;;;;;;;;;25.70;57.50;;;;;;4881064;29;20331;-89
2023/06/24 02:35:16;;;;;;;;;;;25.70;57.60;;;;;;4878691;29;19916;-89
2023/06/24 02:37:42;;;;;;;;;;;25.70;57.60;;;;;;4879332;29;20162;-89
2023/06/24 02:40:08;;;;;;;;;;;25.70;57.60;;;;;;4888685;29;19915;-89
2023/06/24 02:42:37;;;;;;;;;;;25.70;57.60;;;;;;4870491;29;19923;-89
2023/06/24 02:45:04;;;;;;;;;;;25.70;57.60;;;;;;4878994;29;20260;-89
2023/06/24 02:47:30;;;;;;;;;;;25.70;57.60;;;;;;4890050;29;20315;-88
2023/06/24 02:49:57;;;;;;;;;;;25.70;57.60;;;;;;4877851;29;19943;-89
2023/06/24 02:52:28;;;;;;;;;;;25.70;57.60;;;;;;4879740;29;20097;-89
2023/06/24 02:54:55;;;;;;;;;;;25.70;57.70;;;;;;4883015;29;20404;-89
2023/06/24 02:57:27;;;;;;;;;;;25.60;57.60;;;;;;4882438;29;19916;-89
2023/06/24 02:59:53;;;;;;;;;;;25.60;57.60;;;;;;4880466;29;19999;-89
2023/06/24 03:02:18;;;;;;;;;;;25.60;57.50;;;;;;4889229;29;20014;-89
2023/06/24 03:04:47;;;;;;;;;;;25.60;57.60;;;;;;4878822;29;19919;-89
2023/06/24 03:07:20;;;;;;;;;;;25.60;57.60;;;;;;4880307;29;19959;-89
2023/06/24 03:09:46;;;;;;;;;;;25.60;57.60;;;;;;4889214;29;20395;-89
2023/06/24 03:12:14;;;;;;;;;;;25.60;57.60;;;;;;4880120;29;19994;-89
2023/06/24 03:14:43;;;;;;;;;;;25.60;57.60;;;;;;4889416;29;20087;-89
2023/06/24 03:17:11;;;;;;;;;;;25.60;57.60;;;;;;4889842;29;19911;-89
2023/06/24 03:19:37;;;;;;;;;;;25.60;57.60;;;;;;4880741;29;19911;-89
2023/06/24 03:22:06;;;;;;;;;;;25.60;57.60;;;;;;4881662;29;19926;-89
2023/06/24 03:24:34;;;;;;;;;;;25.60;57.60;;;;;;4878675;29;19922;-89
2023/06/24 03:27:00;;;;;;;;;;;25.50;57.60;;;;;;4888854;29;19979;-89
2023/06/24 03:29:25;;;;;;;;;;;25.50;58.00;;;;;;4889115;29;19923;-89
2023/06/24 03:31:51;;;;;;;;;;;25.50;57.60;;;;;;4887218;29;20245;-89
2023/06/24 03:34:17;;;;;;;;;;;25.50;57.60;;;;;;4888402;29;19916;-89
2023/06/24 03:36:43;;;;;;;;;;;25.50;57.60;;;;;;4882052;29;19923;-89
2023/06/24 03:39:11;;;;;;;;;;;25.50;57.60;;;;;;4880050;29;20002;-89
2023/06/24 03:41:40;;;;;;;;;;;25.50;57.60;;;;;;4888353;29;19916;-89
2023/06/24 03:44:05;;;;;;;;;;;25.50;57.60;;;;;;4886999;29;19919;-89
2023/06/24 03:46:32;;;;;;;;;;;25.40;57.50;;;;;;4889012;29;19919;-89
2023/06/24 03:48:58;;;;;;;;;;;25.40;57.60;;;;;;4889566;29;19956;-89
2023/06/24 03:51:24;;;;;;;;;;;25.50;57.60;;;;;;4881869;29;19919;-89
2023/06/24 03:53:50;;;;;;;;;;;25.40;57.50;;;;;;4880203;29;19987;-89
2023/06/24 03:56:19;;;;;;;;;;;25.40;57.60;;;;;;4880738;29;19923;-89
2023/06/24 03:58:44;;;;;;;;;;;25.40;57.50;;;;;;4887299;29;19931;-89
2023/06/24 04:01:10;;;;;;;;;;;25.40;57.50;;;;;;4888818;29;19979;-89
2023/06/24 04:03:35;;;;;;;;;;;25.40;57.50;;;;;;4879485;29;19911;-89
2023/06/24 04:06:01;;;;;;;;;;;25.40;57.50;;;;;;4878365;29;20230;-89
2023/06/24 04:08:30;;;;;;;;;;;25.40;57.50;;;;;;4878023;29;19911;-89
2023/06/24 04:10:56;;;;;;;;;;;25.40;57.50;;;;;;4875761;29;19912;-89
2023/06/24 04:13:21;;;;;;;;;;;25.40;57.50;;;;;;4885770;29;19924;-89
2023/06/24 04:15:50;;;;;;;;;;;25.40;57.50;;;;;;4878963;29;20388;-89
2023/06/24 04:18:19;;;;;;;;;;;25.40;57.40;;;;;;4889453;29;20224;-89
2023/06/24 04:20:45;;;;;;;;;;;25.40;57.50;;;;;;4871219;29;19946;-89
2023/06/24 04:23:14;;;;;;;;;;;25.40;57.40;;;;;;4878071;29;20312;-89
2023/06/24 04:25:39;;;;;;;;;;;25.40;57.40;;;;;;4889313;29;19975;-89
2023/06/24 04:28:05;;;;;;;;;;;25.40;57.40;;;;;;4879430;29;20011;-89
2023/06/24 04:30:31;;;;;;;;;;;25.40;57.40;;;;;;4877964;29;19912;-89
2023/06/24 04:32:59;;;;;;;;;;;25.40;57.40;;;;;;4889755;29;19927;-89
2023/06/24 04:35:25;;;;;;;;;;;25.40;57.40;;;;;;4879011;29;19924;-89
2023/06/24 04:37:51;;;;;;;;;;;25.40;57.40;;;;;;4879884;29;19912;-89
2023/06/24 04:40:17;;;;;;;;;;;25.40;57.40;;;;;;4882241;29;19946;-89
2023/06/24 04:42:42;;;;;;;;;;;25.40;57.40;;;;;;4882696;29;19956;-89
2023/06/24 04:45:11;;;;;;;;;;;25.40;57.30;;;;;;4881621;29;20034;-89
2023/06/24 04:47:36;;;;;;;;;;;25.40;57.30;;;;;;4875111;29;19923;-89
2023/06/24 04:50:02;;;;;;;;;;;25.40;57.30;;;;;;4881979;29;20034;-89
2023/06/24 04:52:28;;;;;;;;;;;25.40;57.30;;;;;;4879865;29;19912;-89
2023/06/24 04:54:53;;;;;;;;;;;25.40;57.30;;;;;;4873285;29;19923;-89
2023/06/24 04:57:29;;;;;;;;;;;25.40;57.30;;;;;;4881231;29;19912;-89
2023/06/24 04:59:55;;;;;;;;;;;25.40;57.30;;;;;;4886974;29;19947;-89
2023/06/24 05:02:24;;;;;;;;;;;25.40;57.30;;;;;;4881223;29;19911;-89
2023/06/24 05:04:51;;;;;;;;;;;25.40;57.40;;;;;;4883639;29;19911;-89
2023/06/24 05:07:19;;;;;;;;;;;25.40;57.30;;;;;;4889440;29;19923;-89
2023/06/24 05:09:46;;;;;;;;;;;25.40;57.30;;;;;;4881740;29;20299;-89
2023/06/24 05:12:12;;;;;;;;;;;25.40;57.30;;;;;;4882606;29;20261;-89
2023/06/24 05:14:41;;;;;;;;;;;25.40;57.30;;;;;;4882402;29;20265;-89
2023/06/24 05:17:06;;;;;;;;;;;25.40;57.30;;;;;;4881086;29;20196;-89
2023/06/24 05:19:32;;;;;;;;;;;25.40;57.20;;;;;;4873761;29;19912;-89
2023/06/24 05:21:58;;;;;;;;;;;25.50;57.20;;;;;;4881233;29;19997;-89
2023/06/24 05:24:23;;;;;;;;;;;25.50;57.10;;;;;;4891225;29;19912;-89
2023/06/24 05:26:50;;;;;;;;;;;25.50;57.10;;;;;;4881733;29;19923;-89
2023/06/24 05:29:18;;;;;;;;;;;25.50;57.10;;;;;;4881442;29;19912;-89
2023/06/24 05:31:47;;;;;;;;;;;25.50;57.10;;;;;;4881681;29;20164;-89
2023/06/24 05:34:21;;;;;;;;;;;25.50;57.10;;;;;;4881294;29;20017;-89
2023/06/24 05:36:47;;;;;;;;;;;25.50;57.10;;;;;;4882150;29;19938;-89
2023/06/24 05:39:13;;;;;;;;;;;25.50;57.10;;;;;;4881445;29;20292;-89
2023/06/24 05:41:41;;;;;;;;;;;25.50;57.20;;;;;;4882568;29;19919;-89
2023/06/24 05:44:08;;;;;;;;;;;25.50;57.10;;;;;;4888767;29;19990;-89
2023/06/24 05:46:34;;;;;;;;;;;25.60;57.10;;;;;;4881130;29;19978;-89
2023/06/24 05:49:02;;;;;;;;;;;25.60;57.20;;;;;;4882182;29;19919;-89
2023/06/24 05:51:31;;;;;;;;;;;25.60;57.10;;;;;;4888580;29;19916;-89
2023/06/24 05:53:59;;;;;;;;;;;25.60;57.10;;;;;;4888000;29;19928;-89
2023/06/24 05:56:25;;;;;;;;;;;25.60;57.20;;;;;;4889860;29;19935;-89
2023/06/24 05:58:53;;;;;;;;;;;25.60;57.40;;;;;;4886163;29;20300;-89
2023/06/24 06:01:22;;;;;;;;;;;25.70;57.70;;;;;;4885595;29;20098;-88
2023/06/24 06:03:47;;;;;;;;;;;25.70;57.30;;;;;;4879516;29;20219;-88
2023/06/24 06:06:13;;;;;;;;;;;25.70;57.20;;;;;;4878691;29;19993;-88
2023/06/24 06:08:39;;;;;;;;;;;25.80;57.20;;;;;;4885252;29;19923;-88
2023/06/24 06:11:04;;;;;;;;;;;25.80;57.10;;;;;;4869711;29;19912;-88
2023/06/24 06:13:30;;;;;;;;;;;25.90;57.10;;;;;;4886829;29;20022;-88
2023/06/24 06:15:56;;;;;;;;;;;25.90;57.00;;;;;;4877791;29;20176;-88
2023/06/24 06:18:24;;;;;;;;;;;25.90;56.90;;;;;;4882418;29;19912;-88
2023/06/24 06:20:50;;;;;;;;;;;25.90;56.90;;;;;;4879450;29;19911;-88
2023/06/24 06:23:16;;;;;;;;;;;26.00;56.90;;;;;;4889980;29;19919;-88
2023/06/24 06:25:42;;;;;;;;;;;26.00;56.80;;;;;;4880255;29;19951;-88
2023/06/24 06:28:11;;;;;;;;;;;26.00;56.80;;;;;;4880813;29;19958;-88
2023/06/24 06:30:39;;;;;;;;;;;26.00;56.80;;;;;;4887394;29;19912;-88
2023/06/24 06:33:08;;;;;;;;;;;26.00;56.80;;;;;;4889708;29;19915;-88
2023/06/24 06:35:33;;;;;;;;;;;26.00;56.90;;;;;;4877022;29;20149;-88
2023/06/24 06:38:02;;;;;;;;;;;26.00;56.90;;;;;;4879677;29;20189;-88
2023/06/24 06:40:28;;;;;;;;;;;26.00;56.90;;;;;;4887850;29;20289;-88
2023/06/24 06:42:57;;;;;;;;;;;26.00;56.90;;;;;;4878291;29;19976;-88
2023/06/24 06:45:22;;;;;;;;;;;26.00;56.80;;;;;;4887743;29;19925;-88
2023/06/24 06:47:49;;;;;;;;;;;26.10;56.80;;;;;;4888652;29;20150;-88
2023/06/24 06:50:14;;;;;;;;;;;26.10;56.80;;;;;;4880720;29;20315;-88
2023/06/24 06:52:40;;;;;;;;;;;26.10;56.80;;;;;;4878651;29;19916;-88
2023/06/24 06:55:09;;;;;;;;;;;26.20;56.70;;;;;;4887997;29;19977;-88
2023/06/24 06:57:34;;;;;;;;;;;26.30;56.70;;;;;;4881241;29;19954;-88
2023/06/24 07:00:00;;;;;;;;;;;26.30;56.50;;;;;;4878084;29;19911;-88
2023/06/24 07:02:26;;;;;;;;;;;26.30;56.40;;;;;;4880251;29;19919;-88
2023/06/24 07:04:54;;;;;;;;;;;26.30;56.40;;;;;;4879774;29;19927;-88
2023/06/24 07:07:20;;;;;;;;;;;26.30;56.70;;;;;;4878614;29;19912;-88
2023/06/24 07:09:46;;;;;;;;;;;26.40;57.60;;;;;;4883282;29;20269;-88
2023/06/24 07:12:13;;;;;;;;;;;26.50;57.20;;;;;;4881184;29;19971;-88
2023/06/24 07:14:39;;;;;;;;;;;26.60;57.20;;;;;;4882550;29;19916;-88
2023/06/24 07:17:05;;;;;;;;;;;26.70;56.90;;;;;;4878576;29;19942;-88
2023/06/24 07:19:30;;;;;;;;;;;26.80;56.90;;;;;;4877686;29;19912;-88
2023/06/24 07:21:56;;;;;;;;;;;26.80;56.40;;;;;;4876130;29;19912;-88
2023/06/24 07:24:22;;;;;;;;;;;26.90;56.60;;;;;;4879411;29;20281;-88
2023/06/24 07:26:52;;;;;;;;;;;27.00;56.60;;;;;;4884864;29;19912;-88
2023/06/24 07:29:17;;;;;;;;;;;27.00;56.40;;;;;;4885688;29;19927;-88
2023/06/24 07:31:43;;;;;;;;;;;27.10;56.40;;;;;;4877547;29;19912;-88
2023/06/24 07:34:08;;;;;;;;;;;27.10;56.20;;;;;;4876618;29;19915;-88
2023/06/24 07:36:37;;;;;;;;;;;27.20;56.30;;;;;;4886350;29;19954;-88
2023/06/24 07:39:03;;;;;;;;;;;27.30;56.20;;;;;;4882829;29;19912;-88
2023/06/24 07:41:28;;;;;;;;;;;27.30;55.90;;;;;;4884820;29;19930;-88
2023/06/24 07:43:55;;;;;;;;;;;27.40;56.00;;;;;;4872658;29;19912;-88
2023/06/24 07:46:21;;;;;;;;;;;27.40;55.80;;;;;;4865351;29;20157;-88
2023/06/24 07:48:49;;;;;;;;;;;27.40;55.90;;;;;;4883140;29;20209;-88
2023/06/24 07:51:18;;;;;;;;;;;27.50;55.70;;;;;;4881743;29;20006;-88
2023/06/24 07:57:01;;;;;;;;;;;27.50;55.60;;;;;;4854564;29;19918;-88
2023/06/24 07:59:26;;;;;;;;;;;27.60;55.60;;;;;;4883388;29;19934;-88
2023/06/24 08:04:52;;;;;;;;;;;27.70;55.40;;;;;;4851607;29;19919;-88
2023/06/24 08:07:20;;;;;;;;;;;27.80;55.20;;;;;;4886447;29;19914;-88
2023/06/24 08:09:58;;;;;;;;;;;27.90;55.20;;;;;;4878090;29;20345;-88
2023/06/24 08:12:24;;;;;;;;;;;28.00;55.00;;;;;;4876123;29;20213;-88
2023/06/24 08:14:49;;;;;;;;;;;28.00;55.00;;;;;;4887070;29;20348;-88
2023/06/24 08:17:24;;;;;;;;;;;28.00;55.00;;;;;;4890530;29;19912;-89
2023/06/24 08:20:00;;;;;;;;;;;28.10;54.90;;;;;;4886456;29;20058;-86
2023/06/24 08:22:25;;;;;;;;;;;28.10;55.00;;;;;;4879883;29;19912;-86
2023/06/24 08:24:51;;;;;;;;;;;28.20;54.90;;;;;;4878961;29;19911;-86
2023/06/24 08:27:19;;;;;;;;;;;28.20;54.90;;;;;;4877981;29;19947;-86
2023/06/24 08:29:48;;;;;;;;;;;28.30;54.80;;;;;;4865857;29;19978;-86
2023/06/24 08:32:19;;;;;;;;;;;28.30;54.70;;;;;;4885339;29;20258;-86
2023/06/24 08:34:45;;;;;;;;;;;28.40;54.70;;;;;;4884796;29;19916;-86
2023/06/24 08:37:11;;;;;;;;;;;28.40;54.60;;;;;;4876780;29;20270;-86
2023/06/24 08:39:38;;;;;;;;;;;28.40;54.50;;;;;;4874678;29;19919;-87
2023/06/24 08:42:04;;;;;;;;;;;28.50;54.60;;;;;;4871460;29;19911;-87
2023/06/24 08:44:29;;;;;;;;;;;28.50;54.60;;;;;;4878328;29;19975;-86
2023/06/24 08:46:56;;;;;;;;;;;28.60;54.50;;;;;;4873252;29;20453;-86
2023/06/24 08:49:21;;;;;;;;;;;28.60;54.40;;;;;;4875923;29;19951;-86
2023/06/24 08:51:49;;;;;;;;;;;28.70;54.40;;;;;;4885005;29;19916;-86
2023/06/24 08:54:25;;;;;;;;;;;28.70;54.40;;;;;;4884039;29;19924;-86
2023/06/24 08:56:51;;;;;;;;;;;28.70;54.40;;;;;;4876387;29;19916;-86
2023/06/24 08:59:20;;;;;;;;;;;28.80;54.50;;;;;;4877863;29;20352;-86
2023/06/24 09:01:51;;;;;;;;;;;28.80;54.40;;;;;;4883488;29;20360;-87
2023/06/24 09:04:20;;;;;;;;;;;28.80;54.40;;;;;;4873705;29;20050;-87
2023/06/24 09:06:46;;;;;;;;;;;28.90;54.40;;;;;;4882400;29;19927;-86
2023/06/24 09:09:21;;;;;;;;;;;28.90;54.40;;;;;;4874098;29;19912;-87
2023/06/24 09:11:54;;;;;;;;;;;28.90;54.30;;;;;;4867741;29;19911;-86
2023/06/24 09:14:36;;;;;;;;;;;29.00;54.40;;;;;;4885272;29;20039;-87
2023/06/24 09:17:11;;;;;;;;;;;28.90;54.20;;;;;;4877389;29;19975;-86
2023/06/24 09:19:37;;;;;;;;;;;29.00;54.30;;;;;;4876928;29;19919;-86
2023/06/24 09:22:03;;;;;;;;;;;29.00;54.30;;;;;;4874326;29;19911;-87
2023/06/24 09:24:36;;;;;;;;;;;29.10;54.30;;;;;;4880519;29;19965;-86
2023/06/24 09:27:05;;;;;;;;;;;29.10;54.30;;;;;;4870813;29;19962;-86
2023/06/24 09:29:34;;;;;;;;;;;29.10;54.30;;;;;;4863604;29;20206;-87
2023/06/24 09:32:03;;;;;;;;;;;29.10;54.30;;;;;;4871286;29;19916;-86
2023/06/24 09:34:28;;;;;;;;;;;29.20;54.30;;;;;;4873081;29;19915;-86
2023/06/24 09:37:09;;;;;;;;;;;29.20;54.30;;;;;;4857226;29;20156;-86
2023/06/24 09:39:39;;;;;;;;;;;29.20;54.30;;;;;;4883316;29;19968;-86
2023/06/24 09:42:09;;;;;;;;;;;29.20;54.30;;;;;;4874906;29;20168;-86
2023/06/24 09:44:34;;;;;;;;;;;29.30;54.40;;;;;;4866518;29;19923;-86
2023/06/24 09:47:03;;;;;;;;;;;29.30;54.40;;;;;;4874976;29;19915;-87
2023/06/24 09:49:35;;;;;;;;;;;29.30;54.40;;;;;;4875344;29;19923;-86
2023/06/24 09:52:07;;;;;;;;;;;29.30;54.40;;;;;;4874111;29;20253;-86
2023/06/24 09:54:34;;;;;;;;;;;29.30;54.30;;;;;;4874321;29;19915;-87
2023/06/24 09:57:04;;;;;;;;;;;29.40;54.40;;;;;;4874067;29;20124;-86
2023/06/24 09:59:33;;;;;;;;;;;29.40;54.40;;;;;;4871474;29;19937;-86
2023/06/24 10:02:02;;;;;;;;;;;29.40;54.40;;;;;;4882208;29;19920;-85
2023/06/24 10:04:40;;;;;;;;;;;29.40;54.30;;;;;;4879625;29;20375;-86
2023/06/24 10:07:12;;;;;;;;;;;29.40;54.40;;;;;;4863388;29;19950;-86
2023/06/24 10:09:38;;;;;;;;;;;29.40;54.40;;;;;;4884803;29;19911;-87
2023/06/24 10:12:10;;;;;;;;;;;29.40;54.40;;;;;;4873575;29;20289;-86
2023/06/24 10:14:36;;;;;;;;;;;29.40;54.40;;;;;;4853602;29;19931;-86
2023/06/24 10:17:35;;;;;;;;;;;29.40;54.40;;;;;;4870400;29;19912;-86
2023/06/24 10:20:06;;;;;;;;;;;29.50;54.50;;;;;;4864017;29;20271;-86
2023/06/24 10:22:31;;;;;;;;;;;29.50;54.50;;;;;;4872329;29;20248;-87
2023/06/24 10:25:00;;;;;;;;;;;29.50;54.50;;;;;;4861865;29;20468;-86
2023/06/24 10:27:32;;;;;;;;;;;29.50;54.60;;;;;;4865683;29;20259;-86
2023/06/24 10:30:33;;;;;;;;;;;29.50;54.60;;;;;;4882627;29;20192;-86
2023/06/24 10:33:19;;;;;;;;;;;29.50;54.60;;;;;;4864672;29;19920;-86
2023/06/24 10:35:45;;;;;;;;;;;29.60;54.70;;;;;;4880578;29;19945;-86
2023/06/24 10:38:11;;;;;;;;;;;29.60;54.70;;;;;;4871262;29;19915;-87
2023/06/24 10:40:43;;;;;;;;;;;29.50;54.60;;;;;;4869130;29;19979;-86
2023/06/24 10:43:25;;;;;;;;;;;29.50;54.70;;;;;;4866160;29;20146;-86
2023/06/24 10:45:51;;;;;;;;;;;29.60;54.80;;;;;;4878943;29;19979;-87
2023/06/24 10:48:20;;;;;;;;;;;29.60;54.80;;;;;;4878443;29;20223;-86
2023/06/24 10:50:46;;;;;;;;;;;29.60;54.80;;;;;;4877154;29;20084;-86
2023/06/24 10:53:12;;;;;;;;;;;29.60;54.80;;;;;;4873160;29;19923;-85
2023/06/24 10:55:37;;;;;;;;;;;29.60;54.80;;;;;;4879591;29;20134;-85
2023/06/24 10:58:14;;;;;;;;;;;29.60;54.80;;;;;;4855951;29;19927;-85
2023/06/24 11:00:40;;;;;;;;;;;29.60;54.80;;;;;;4868710;29;19912;-85
2023/06/24 11:03:09;;;;;;;;;;;29.60;54.80;;;;;;4877880;29;20002;-85
2023/06/24 11:05:42;;;;;;;;;;;29.60;54.80;;;;;;4871588;29;19912;-86
2023/06/24 11:08:10;;;;;;;;;;;29.60;54.90;;;;;;4874242;29;19911;-85
2023/06/24 11:10:43;;;;;;;;;;;29.60;54.90;;;;;;4880288;29;20066;-87
2023/06/24 11:13:12;;;;;;;;;;;29.70;55.00;;;;;;4881228;29;19916;-87
2023/06/24 11:15:38;;;;;;;;;;;29.70;55.00;;;;;;4871743;29;19920;-88
2023/06/24 11:18:04;;;;;;;;;;;29.70;55.00;;;;;;4879206;29;19958;-85
2023/06/24 11:20:30;;;;;;;;;;;29.70;55.00;;;;;;4870893;29;19955;-87
2023/06/24 11:22:55;;;;;;;;;;;29.70;55.10;;;;;;4873009;29;19920;-87
2023/06/24 11:25:21;;;;;;;;;;;29.70;55.10;;;;;;4875338;29;20184;-86
2023/06/24 11:27:47;;;;;;;;;;;29.70;55.10;;;;;;4883152;29;19916;-86
2023/06/24 11:30:13;;;;;;;;;;;29.80;55.10;;;;;;4877666;29;19915;-87
2023/06/24 11:32:47;;;;;;;;;;;29.80;55.50;;;;;;4881996;29;19927;-87
2023/06/24 11:35:19;;;;;;;;;;;29.80;55.10;;;;;;4886814;29;20276;-87
2023/06/24 11:38:00;;;;;;;;;;;29.80;55.10;;;;;;4880018;29;19912;-88
2023/06/24 11:40:29;;;;;;;;;;;29.80;55.10;;;;;;4880844;29;19947;-88
2023/06/24 11:42:57;;;;;;;;;;;29.80;55.10;;;;;;4876017;29;19912;-86
2023/06/24 11:45:24;;;;;;;;;;;29.80;55.10;;;;;;4868726;29;19927;-86
2023/06/24 11:47:53;;;;;;;;;;;29.90;55.10;;;;;;4876591;29;20161;-86
2023/06/24 11:50:25;;;;;;;;;;;29.90;55.20;;;;;;4878250;29;19919;-85
2023/06/24 11:52:52;;;;;;;;;;;29.90;55.20;;;;;;4883313;29;19928;-86
2023/06/24 11:55:18;;;;;;;;;;;29.90;55.20;;;;;;4867374;29;19927;-86
2023/06/24 11:57:54;;;;;;;;;;;29.90;55.20;;;;;;4870908;29;19995;-86
2023/06/24 12:00:21;;;;;;;;;;;29.90;55.20;;;;;;4863842;29;19923;-86
2023/06/24 12:02:49;;;;;;;;;;;29.90;55.30;;;;;;4870401;29;20010;-87
2023/06/24 12:05:25;;;;;;;;;;;29.90;55.30;;;;;;4868238;29;20171;-86
2023/06/24 12:07:51;;;;;;;;;;;29.90;55.30;;;;;;4863447;29;20193;-86
2023/06/24 12:10:17;;;;;;;;;;;29.90;55.30;;;;;;4879424;29;19912;-87
2023/06/24 12:12:43;;;;;;;;;;;29.90;55.40;;;;;;4870334;29;19970;-86
2023/06/24 12:15:08;;;;;;;;;;;29.90;55.40;;;;;;4867917;29;19912;-87
2023/06/24 12:17:34;;;;;;;;;;;29.90;55.50;;;;;;4878266;29;19912;-87
2023/06/24 12:20:03;;;;;;;;;;;29.90;55.50;;;;;;4878651;29;19911;-87
2023/06/24 12:22:29;;;;;;;;;;;29.90;55.40;;;;;;4869535;29;19953;-87
2023/06/24 12:24:54;;;;;;;;;;;29.90;55.50;;;;;;4870184;29;19919;-86
2023/06/24 12:27:20;;;;;;;;;;;30.00;55.50;;;;;;4868719;29;20107;-87
2023/06/24 12:29:46;;;;;;;;;;;29.90;55.50;;;;;;4878806;29;20009;-87
2023/06/24 12:32:11;;;;;;;;;;;29.90;55.50;;;;;;4880202;29;20058;-87
2023/06/24 12:34:40;;;;;;;;;;;29.90;55.50;;;;;;4879528;29;20015;-87
2023/06/24 12:37:08;;;;;;;;;;;29.90;55.50;;;;;;4880748;29;19920;-88
2023/06/24 12:39:37;;;;;;;;;;;30.00;55.60;;;;;;4872274;29;19938;-87
2023/06/24 12:42:03;;;;;;;;;;;30.00;55.70;;;;;;4864091;29;20319;-86
2023/06/24 12:44:32;;;;;;;;;;;30.00;55.60;;;;;;4876385;29;19990;-86
2023/06/24 12:46:57;;;;;;;;;;;30.00;55.70;;;;;;4880886;29;20007;-87
2023/06/24 12:49:23;;;;;;;;;;;30.00;55.70;;;;;;4867500;29;20080;-87
2023/06/24 12:51:49;;;;;;;;;;;30.00;55.70;;;;;;4872322;29;20203;-87
2023/06/24 12:54:15;;;;;;;;;;;30.00;55.60;;;;;;4880706;29;20022;-87
2023/06/24 12:56:40;;;;;;;;;;;30.00;55.70;;;;;;4871894;29;20119;-88
2023/06/24 12:59:06;;;;;;;;;;;30.00;55.70;;;;;;4865169;29;19911;-87
2023/06/24 13:01:32;;;;;;;;;;;30.00;55.70;;;;;;4875612;29;19912;-88
2023/06/24 13:04:04;;;;;;;;;;;30.00;55.70;;;;;;4878934;29;19955;-88
2023/06/24 13:06:39;;;;;;;;;;;30.10;55.80;;;;;;4874389;29;20138;-87
2023/06/24 13:09:06;;;;;;;;;;;30.10;55.80;;;;;;4874692;29;19919;-88
2023/06/24 13:11:31;;;;;;;;;;;30.10;55.80;;;;;;4876564;29;19963;-88
2023/06/24 13:13:58;;;;;;;;;;;30.10;55.90;;;;;;4887607;29;19924;-87
2023/06/24 13:16:30;;;;;;;;;;;30.10;55.90;;;;;;4873396;29;19979;-87
2023/06/24 13:18:56;;;;;;;;;;;30.10;55.90;;;;;;4867394;29;20407;-88
2023/06/24 13:21:21;;;;;;;;;;;30.10;55.90;;;;;;4882651;29;19976;-87
2023/06/24 13:23:48;;;;;;;;;;;30.10;55.90;;;;;;4874145;29;20288;-87
2023/06/24 13:26:13;;;;;;;;;;;30.10;55.90;;;;;;4885033;29;20024;-87
2023/06/24 13:28:43;;;;;;;;;;;30.10;55.90;;;;;;4878011;29;20261;-87
2023/06/24 13:31:09;;;;;;;;;;;30.10;55.90;;;;;;4874959;29;19915;-88
2023/06/24 13:33:35;;;;;;;;;;;30.10;55.90;;;;;;4874462;29;20299;-87
2023/06/24 13:36:01;;;;;;;;;;;30.10;55.90;;;;;;4882851;29;19916;-87
2023/06/24 13:38:26;;;;;;;;;;;30.10;55.90;;;;;;4875118;29;19912;-87
2023/06/24 13:40:52;;;;;;;;;;;30.10;56.00;;;;;;4885172;29;20216;-87
2023/06/24 13:43:19;;;;;;;;;;;30.10;55.90;;;;;;4878798;29;20292;-88
2023/06/24 13:45:54;;;;;;;;;;;30.10;55.90;;;;;;4883666;29;19912;-87
2023/06/24 13:48:23;;;;;;;;;;;30.10;56.00;;;;;;4873581;29;19912;-87
2023/06/24 13:50:48;;;;;;;;;;;30.10;56.00;;;;;;4885812;29;20014;-87
2023/06/24 13:53:17;;;;;;;;;;;30.10;56.00;;;;;;4874488;29;20018;-88
2023/06/24 13:55:42;;;;;;;;;;;30.20;56.00;;;;;;4874478;29;20009;-87
2023/06/24 13:58:09;;;;;;;;;;;30.20;56.00;;;;;;4882375;29;20010;-87
2023/06/24 14:00:34;;;;;;;;;;;30.20;56.10;;;;;;4873303;29;19911;-87
2023/06/24 14:03:12;;;;;;;;;;;30.20;56.10;;;;;;4886116;29;19922;-87
2023/06/24 14:05:44;;;;;;;;;;;30.20;56.10;;;;;;4878173;29;20139;-87
2023/06/24 14:08:15;;;;;;;;;;;30.20;56.10;;;;;;4871233;29;19912;-87
2023/06/24 14:10:41;;;;;;;;;;;30.20;56.10;;;;;;4873015;29;19916;-88
2023/06/24 14:13:06;;;;;;;;;;;30.20;56.20;;;;;;4874488;29;19923;-87
2023/06/24 14:15:38;;;;;;;;;;;30.20;56.20;;;;;;4874190;29;19912;-87
2023/06/24 14:18:04;;;;;;;;;;;30.30;56.20;;;;;;4872405;29;19911;-88
2023/06/24 14:20:30;;;;;;;;;;;30.20;56.20;;;;;;4882480;29;19922;-88
2023/06/24 14:22:55;;;;;;;;;;;30.30;56.20;;;;;;4873786;29;20169;-87
2023/06/24 14:25:21;;;;;;;;;;;30.20;56.20;;;;;;4871083;29;20067;-87
2023/06/24 14:27:46;;;;;;;;;;;30.20;56.20;;;;;;4876104;29;19912;-87